sensor_id;sensor_type;location;lat;lon;timestamp;P1;durP1;ratioP1;P2;durP2;ratioP2
50205;SDS011;36098;48.390;10.856;2022-09-28T00:01:24;0.45;;;0.32;;
50205;SDS011;36098;48.390;10.856;2022-09-28T00:03:52;0.82;;;0.47;;
50205;SDS011;36098;48.390;10.856;2022-09-28T00:06:20;0.73;;;0.30;;
50205;SDS011;36098;48.390;10.856;2022-09-28T00:08:48;0.80;;;0.40;;
50205;SDS011;36098;48.390;10.856;2022-09-28T00:11:14;0.88;;;0.40;;
50205;SDS011;36098;48.390;10.856;2022-09-28T00:13:40;0.68;;;0.32;;
50205;SDS011;36098;48.390;10.856;2022-09-28T00:16:08;0.60;;;0.30;;
50205;SDS011;36098;48.390;10.856;2022-09-28T00:18:38;0.65;;;0.40;;
50205;SDS011;36098;48.390;10.856;2022-09-28T00:21:05;0.40;;;0.40;;
50205;SDS011;36098;48.390;10.856;2022-09-28T00:23:33;0.38;;;0.30;;
50205;SDS011;36098;48.390;10.856;2022-09-28T00:26:02;0.82;;;0.57;;
50205;SDS011;36098;48.390;10.856;2022-09-28T00:28:28;0.60;;;0.40;;
50205;SDS011;36098;48.390;10.856;2022-09-28T00:30:55;0.50;;;0.30;;
50205;SDS011;36098;48.390;10.856;2022-09-28T00:33:20;1.45;;;0.38;;
50205;SDS011;36098;48.390;10.856;2022-09-28T00:35:46;1.05;;;0.40;;
50205;SDS011;36098;48.390;10.856;2022-09-28T00:38:18;0.30;;;0.30;;
50205;SDS011;36098;48.390;10.856;2022-09-28T00:40:44;0.55;;;0.30;;
50205;SDS011;36098;48.390;10.856;2022-09-28T00:43:16;0.82;;;0.32;;
50205;SDS011;36098;48.390;10.856;2022-09-28T00:45:42;0.50;;;0.28;;
50205;SDS011;36098;48.390;10.856;2022-09-28T00:48:08;0.32;;;0.20;;
50205;SDS011;36098;48.390;10.856;2022-09-28T00:50:35;0.40;;;0.30;;
50205;SDS011;36098;48.390;10.856;2022-09-28T00:55:56;0.45;;;0.35;;
50205;SDS011;36098;48.390;10.856;2022-09-28T00:58:31;0.52;;;0.32;;
50205;SDS011;36098;48.390;10.856;2022-09-28T01:01:00;0.63;;;0.38;;
50205;SDS011;36098;48.390;10.856;2022-09-28T01:03:26;0.80;;;0.30;;
50205;SDS011;36098;48.390;10.856;2022-09-28T01:05:54;1.08;;;0.50;;
50205;SDS011;36098;48.390;10.856;2022-09-28T01:08:21;0.43;;;0.20;;
50205;SDS011;36098;48.390;10.856;2022-09-28T01:10:48;0.77;;;0.35;;
50205;SDS011;36098;48.390;10.856;2022-09-28T01:13:15;0.40;;;0.30;;
50205;SDS011;36098;48.390;10.856;2022-09-28T01:15:43;0.30;;;0.30;;
50205;SDS011;36098;48.390;10.856;2022-09-28T01:21:24;0.40;;;0.25;;
50205;SDS011;36098;48.390;10.856;2022-09-28T01:23:59;0.35;;;0.20;;
50205;SDS011;36098;48.390;10.856;2022-09-28T01:26:54;0.40;;;0.30;;
50205;SDS011;36098;48.390;10.856;2022-09-28T01:32:04;0.45;;;0.20;;
50205;SDS011;36098;48.390;10.856;2022-09-28T01:34:56;0.50;;;0.40;;
50205;SDS011;36098;48.390;10.856;2022-09-28T01:37:29;0.45;;;0.28;;
50205;SDS011;36098;48.390;10.856;2022-09-28T01:40:00;0.50;;;0.30;;
50205;SDS011;36098;48.390;10.856;2022-09-28T01:42:28;0.22;;;0.20;;
50205;SDS011;36098;48.390;10.856;2022-09-28T01:44:59;0.40;;;0.20;;
50205;SDS011;36098;48.390;10.856;2022-09-28T01:47:34;0.47;;;0.30;;
50205;SDS011;36098;48.390;10.856;2022-09-28T01:50:21;0.20;;;0.20;;
50205;SDS011;36098;48.390;10.856;2022-09-28T01:53:00;0.40;;;0.30;;
50205;SDS011;36098;48.390;10.856;2022-09-28T01:55:31;0.38;;;0.25;;
50205;SDS011;36098;48.390;10.856;2022-09-28T01:58:02;0.75;;;0.30;;
50205;SDS011;36098;48.390;10.856;2022-09-28T02:00:36;1.23;;;0.43;;
50205;SDS011;36098;48.390;10.856;2022-09-28T02:03:07;0.28;;;0.20;;
50205;SDS011;36098;48.390;10.856;2022-09-28T02:05:40;0.40;;;0.20;;
50205;SDS011;36098;48.390;10.856;2022-09-28T02:08:22;0.38;;;0.25;;
50205;SDS011;36098;48.390;10.856;2022-09-28T02:13:53;0.70;;;0.30;;
50205;SDS011;36098;48.390;10.856;2022-09-28T02:16:28;0.47;;;0.28;;
50205;SDS011;36098;48.390;10.856;2022-09-28T02:18:58;0.57;;;0.30;;
50205;SDS011;36098;48.390;10.856;2022-09-28T02:21:28;0.80;;;0.40;;
50205;SDS011;36098;48.390;10.856;2022-09-28T02:24:06;0.60;;;0.30;;
50205;SDS011;36098;48.390;10.856;2022-09-28T02:26:46;0.60;;;0.28;;
50205;SDS011;36098;48.390;10.856;2022-09-28T02:29:13;0.70;;;0.30;;
50205;SDS011;36098;48.390;10.856;2022-09-28T02:31:39;0.35;;;0.20;;
50205;SDS011;36098;48.390;10.856;2022-09-28T02:34:04;1.20;;;0.35;;
50205;SDS011;36098;48.390;10.856;2022-09-28T02:36:30;0.50;;;0.30;;
50205;SDS011;36098;48.390;10.856;2022-09-28T02:38:56;1.20;;;0.50;;
50205;SDS011;36098;48.390;10.856;2022-09-28T02:41:26;0.75;;;0.28;;
50205;SDS011;36098;48.390;10.856;2022-09-28T02:44:53;0.57;;;0.20;;
50205;SDS011;36098;48.390;10.856;2022-09-28T02:59:03;0.40;;;0.20;;
50205;SDS011;36098;48.390;10.856;2022-09-28T03:07:39;0.28;;;0.20;;
50205;SDS011;36098;48.390;10.856;2022-09-28T03:12:56;0.70;;;0.35;;
50205;SDS011;36098;48.390;10.856;2022-09-28T03:15:24;0.40;;;0.20;;
50205;SDS011;36098;48.390;10.856;2022-09-28T03:17:52;0.57;;;0.30;;
50205;SDS011;36098;48.390;10.856;2022-09-28T03:20:17;0.65;;;0.38;;
50205;SDS011;36098;48.390;10.856;2022-09-28T03:22:43;1.27;;;0.30;;
50205;SDS011;36098;48.390;10.856;2022-09-28T03:25:09;0.57;;;0.40;;
50205;SDS011;36098;48.390;10.856;2022-09-28T03:27:34;0.90;;;0.35;;
50205;SDS011;36098;48.390;10.856;2022-09-28T03:30:00;0.30;;;0.20;;
50205;SDS011;36098;48.390;10.856;2022-09-28T03:32:26;0.93;;;0.30;;
50205;SDS011;36098;48.390;10.856;2022-09-28T03:34:51;0.45;;;0.20;;
50205;SDS011;36098;48.390;10.856;2022-09-28T03:37:16;0.98;;;0.40;;
50205;SDS011;36098;48.390;10.856;2022-09-28T03:39:41;2.20;;;0.30;;
50205;SDS011;36098;48.390;10.856;2022-09-28T03:42:07;0.30;;;0.30;;
50205;SDS011;36098;48.390;10.856;2022-09-28T03:44:32;0.73;;;0.20;;
50205;SDS011;36098;48.390;10.856;2022-09-28T03:46:57;0.68;;;0.20;;
50205;SDS011;36098;48.390;10.856;2022-09-28T03:49:23;0.60;;;0.30;;
50205;SDS011;36098;48.390;10.856;2022-09-28T03:51:48;0.38;;;0.25;;
50205;SDS011;36098;48.390;10.856;2022-09-28T03:54:13;0.30;;;0.20;;
50205;SDS011;36098;48.390;10.856;2022-09-28T03:56:39;0.20;;;0.20;;
50205;SDS011;36098;48.390;10.856;2022-09-28T03:59:04;0.35;;;0.22;;
50205;SDS011;36098;48.390;10.856;2022-09-28T04:01:30;0.35;;;0.25;;
50205;SDS011;36098;48.390;10.856;2022-09-28T04:03:55;1.15;;;0.50;;
50205;SDS011;36098;48.390;10.856;2022-09-28T04:06:21;0.17;;;0.10;;
50205;SDS011;36098;48.390;10.856;2022-09-28T04:08:47;0.40;;;0.20;;
50205;SDS011;36098;48.390;10.856;2022-09-28T04:11:12;0.43;;;0.30;;
50205;SDS011;36098;48.390;10.856;2022-09-28T04:13:37;0.70;;;0.30;;
50205;SDS011;36098;48.390;10.856;2022-09-28T04:16:03;0.30;;;0.22;;
50205;SDS011;36098;48.390;10.856;2022-09-28T04:18:29;0.57;;;0.25;;
50205;SDS011;36098;48.390;10.856;2022-09-28T04:23:28;0.50;;;0.30;;
50205;SDS011;36098;48.390;10.856;2022-09-28T04:25:54;1.05;;;0.40;;
50205;SDS011;36098;48.390;10.856;2022-09-28T04:28:19;1.20;;;0.30;;
50205;SDS011;36098;48.390;10.856;2022-09-28T04:31:06;0.95;;;0.17;;
50205;SDS011;36098;48.390;10.856;2022-09-28T04:33:34;0.65;;;0.22;;
50205;SDS011;36098;48.390;10.856;2022-09-28T04:35:59;0.43;;;0.30;;
50205;SDS011;36098;48.390;10.856;2022-09-28T04:38:24;0.70;;;0.30;;
50205;SDS011;36098;48.390;10.856;2022-09-28T04:40:50;0.40;;;0.30;;
50205;SDS011;36098;48.390;10.856;2022-09-28T04:43:15;0.60;;;0.30;;
50205;SDS011;36098;48.390;10.856;2022-09-28T04:45:40;1.55;;;0.40;;
50205;SDS011;36098;48.390;10.856;2022-09-28T04:48:05;0.90;;;0.20;;
50205;SDS011;36098;48.390;10.856;2022-09-28T04:50:31;0.35;;;0.20;;
50205;SDS011;36098;48.390;10.856;2022-09-28T04:52:58;0.40;;;0.25;;
50205;SDS011;36098;48.390;10.856;2022-09-28T04:55:24;1.85;;;0.68;;
50205;SDS011;36098;48.390;10.856;2022-09-28T04:57:49;2.53;;;0.30;;
50205;SDS011;36098;48.390;10.856;2022-09-28T05:00:15;1.05;;;0.40;;
50205;SDS011;36098;48.390;10.856;2022-09-28T05:02:41;0.65;;;0.32;;
50205;SDS011;36098;48.390;10.856;2022-09-28T05:05:06;1.90;;;0.38;;
50205;SDS011;36098;48.390;10.856;2022-09-28T05:07:32;0.22;;;0.10;;
50205;SDS011;36098;48.390;10.856;2022-09-28T05:09:57;0.65;;;0.30;;
50205;SDS011;36098;48.390;10.856;2022-09-28T05:12:24;1.27;;;0.30;;
50205;SDS011;36098;48.390;10.856;2022-09-28T05:14:49;0.55;;;0.30;;
50205;SDS011;36098;48.390;10.856;2022-09-28T05:17:14;0.60;;;0.30;;
50205;SDS011;36098;48.390;10.856;2022-09-28T05:19:40;0.95;;;0.40;;
50205;SDS011;36098;48.390;10.856;2022-09-28T05:22:05;2.20;;;0.30;;
50205;SDS011;36098;48.390;10.856;2022-09-28T05:24:35;2.25;;;0.30;;
50205;SDS011;36098;48.390;10.856;2022-09-28T05:27:00;1.95;;;0.28;;
50205;SDS011;36098;48.390;10.856;2022-09-28T05:29:25;1.00;;;0.20;;
50205;SDS011;36098;48.390;10.856;2022-09-28T05:31:50;3.85;;;0.50;;
50205;SDS011;36098;48.390;10.856;2022-09-28T05:34:16;2.40;;;0.30;;
50205;SDS011;36098;48.390;10.856;2022-09-28T05:36:41;1.95;;;0.45;;
50205;SDS011;36098;48.390;10.856;2022-09-28T05:39:07;3.63;;;0.70;;
50205;SDS011;36098;48.390;10.856;2022-09-28T05:41:33;4.60;;;0.50;;
50205;SDS011;36098;48.390;10.856;2022-09-28T05:43:58;2.05;;;0.38;;
50205;SDS011;36098;48.390;10.856;2022-09-28T05:46:24;1.73;;;0.40;;
50205;SDS011;36098;48.390;10.856;2022-09-28T05:48:49;2.25;;;0.52;;
50205;SDS011;36098;48.390;10.856;2022-09-28T05:51:16;2.80;;;0.60;;
50205;SDS011;36098;48.390;10.856;2022-09-28T05:53:42;3.90;;;0.40;;
50205;SDS011;36098;48.390;10.856;2022-09-28T05:56:07;3.88;;;0.50;;
50205;SDS011;36098;48.390;10.856;2022-09-28T05:58:32;7.03;;;0.47;;
50205;SDS011;36098;48.390;10.856;2022-09-28T06:00:57;0.85;;;0.20;;
50205;SDS011;36098;48.390;10.856;2022-09-28T06:03:23;3.60;;;0.40;;
50205;SDS011;36098;48.390;10.856;2022-09-28T06:05:49;2.63;;;0.65;;
50205;SDS011;36098;48.390;10.856;2022-09-28T06:08:14;1.27;;;0.35;;
50205;SDS011;36098;48.390;10.856;2022-09-28T06:10:39;4.88;;;0.47;;
50205;SDS011;36098;48.390;10.856;2022-09-28T06:13:05;2.25;;;0.50;;
50205;SDS011;36098;48.390;10.856;2022-09-28T06:15:31;8.18;;;0.70;;
50205;SDS011;36098;48.390;10.856;2022-09-28T06:17:59;4.35;;;0.52;;
50205;SDS011;36098;48.390;10.856;2022-09-28T06:20:26;3.72;;;0.60;;
50205;SDS011;36098;48.390;10.856;2022-09-28T06:22:54;1.15;;;0.30;;
50205;SDS011;36098;48.390;10.856;2022-09-28T06:25:20;1.38;;;0.32;;
50205;SDS011;36098;48.390;10.856;2022-09-28T06:30:38;3.53;;;0.40;;
50205;SDS011;36098;48.390;10.856;2022-09-28T06:33:05;4.40;;;0.50;;
50205;SDS011;36098;48.390;10.856;2022-09-28T06:35:32;1.45;;;0.38;;
50205;SDS011;36098;48.390;10.856;2022-09-28T06:37:59;3.85;;;0.77;;
50205;SDS011;36098;48.390;10.856;2022-09-28T06:40:25;0.88;;;0.35;;
50205;SDS011;36098;48.390;10.856;2022-09-28T06:42:57;2.55;;;0.40;;
50205;SDS011;36098;48.390;10.856;2022-09-28T06:45:25;2.35;;;0.50;;
50205;SDS011;36098;48.390;10.856;2022-09-28T06:47:52;0.45;;;0.40;;
50205;SDS011;36098;48.390;10.856;2022-09-28T06:50:22;4.15;;;0.93;;
50205;SDS011;36098;48.390;10.856;2022-09-28T06:52:49;3.00;;;0.68;;
50205;SDS011;36098;48.390;10.856;2022-09-28T06:55:15;3.55;;;0.80;;
50205;SDS011;36098;48.390;10.856;2022-09-28T06:57:40;2.63;;;0.70;;
50205;SDS011;36098;48.390;10.856;2022-09-28T07:00:06;0.88;;;0.40;;
50205;SDS011;36098;48.390;10.856;2022-09-28T07:02:32;2.97;;;0.77;;
50205;SDS011;36098;48.390;10.856;2022-09-28T07:04:57;4.63;;;0.60;;
50205;SDS011;36098;48.390;10.856;2022-09-28T07:07:22;5.03;;;1.38;;
50205;SDS011;36098;48.390;10.856;2022-09-28T07:09:51;6.45;;;1.10;;
50205;SDS011;36098;48.390;10.856;2022-09-28T07:12:17;3.88;;;0.77;;
50205;SDS011;36098;48.390;10.856;2022-09-28T07:14:42;4.30;;;1.00;;
50205;SDS011;36098;48.390;10.856;2022-09-28T07:17:07;2.70;;;0.77;;
50205;SDS011;36098;48.390;10.856;2022-09-28T07:19:33;6.10;;;0.90;;
50205;SDS011;36098;48.390;10.856;2022-09-28T07:22:00;4.43;;;0.98;;
50205;SDS011;36098;48.390;10.856;2022-09-28T07:24:25;14.50;;;1.13;;
50205;SDS011;36098;48.390;10.856;2022-09-28T07:26:52;15.35;;;1.10;;
50205;SDS011;36098;48.390;10.856;2022-09-28T07:29:17;6.32;;;1.40;;
50205;SDS011;36098;48.390;10.856;2022-09-28T07:31:43;3.20;;;0.80;;
50205;SDS011;36098;48.390;10.856;2022-09-28T07:34:08;3.63;;;0.60;;
50205;SDS011;36098;48.390;10.856;2022-09-28T07:36:33;3.83;;;0.80;;
50205;SDS011;36098;48.390;10.856;2022-09-28T07:38:59;8.65;;;1.08;;
50205;SDS011;36098;48.390;10.856;2022-09-28T07:41:25;5.35;;;0.90;;
50205;SDS011;36098;48.390;10.856;2022-09-28T07:43:57;12.85;;;1.00;;
50205;SDS011;36098;48.390;10.856;2022-09-28T07:46:30;1.60;;;0.65;;
50205;SDS011;36098;48.390;10.856;2022-09-28T07:48:56;5.82;;;1.15;;
50205;SDS011;36098;48.390;10.856;2022-09-28T07:51:22;2.95;;;0.65;;
50205;SDS011;36098;48.390;10.856;2022-09-28T07:53:47;3.00;;;0.60;;
50205;SDS011;36098;48.390;10.856;2022-09-28T07:56:12;4.53;;;0.60;;
50205;SDS011;36098;48.390;10.856;2022-09-28T07:58:41;4.70;;;0.82;;
50205;SDS011;36098;48.390;10.856;2022-09-28T08:01:08;4.95;;;0.65;;
50205;SDS011;36098;48.390;10.856;2022-09-28T08:03:35;4.25;;;0.85;;
50205;SDS011;36098;48.390;10.856;2022-09-28T08:06:02;6.97;;;1.25;;
50205;SDS011;36098;48.390;10.856;2022-09-28T08:08:29;2.97;;;0.80;;
50205;SDS011;36098;48.390;10.856;2022-09-28T08:10:55;2.45;;;0.80;;
50205;SDS011;36098;48.390;10.856;2022-09-28T08:13:21;4.72;;;0.90;;
50205;SDS011;36098;48.390;10.856;2022-09-28T08:15:49;1.85;;;0.60;;
50205;SDS011;36098;48.390;10.856;2022-09-28T08:18:15;4.30;;;0.90;;
50205;SDS011;36098;48.390;10.856;2022-09-28T08:20:41;1.90;;;0.60;;
50205;SDS011;36098;48.390;10.856;2022-09-28T08:23:25;6.88;;;1.05;;
50205;SDS011;36098;48.390;10.856;2022-09-28T08:25:51;3.92;;;0.68;;
50205;SDS011;36098;48.390;10.856;2022-09-28T08:28:18;3.83;;;0.82;;
50205;SDS011;36098;48.390;10.856;2022-09-28T08:30:44;3.58;;;0.88;;
50205;SDS011;36098;48.390;10.856;2022-09-28T08:33:10;5.35;;;1.00;;
50205;SDS011;36098;48.390;10.856;2022-09-28T08:35:39;2.72;;;0.60;;
50205;SDS011;36098;48.390;10.856;2022-09-28T08:38:05;3.22;;;0.82;;
50205;SDS011;36098;48.390;10.856;2022-09-28T08:40:33;2.05;;;0.90;;
50205;SDS011;36098;48.390;10.856;2022-09-28T08:46:04;1.75;;;0.70;;
50205;SDS011;36098;48.390;10.856;2022-09-28T08:48:32;1.67;;;0.52;;
50205;SDS011;36098;48.390;10.856;2022-09-28T08:59:18;1.60;;;0.60;;
50205;SDS011;36098;48.390;10.856;2022-09-28T09:01:50;2.50;;;0.80;;
50205;SDS011;36098;48.390;10.856;2022-09-28T09:04:20;2.22;;;0.60;;
50205;SDS011;36098;48.390;10.856;2022-09-28T09:06:55;1.65;;;0.60;;
50205;SDS011;36098;48.390;10.856;2022-09-28T09:14:52;4.28;;;0.55;;
50205;SDS011;36098;48.390;10.856;2022-09-28T09:20:30;3.70;;;0.68;;
50205;SDS011;36098;48.390;10.856;2022-09-28T09:23:09;2.60;;;0.60;;
50205;SDS011;36098;48.390;10.856;2022-09-28T09:25:47;1.83;;;0.68;;
50205;SDS011;36098;48.390;10.856;2022-09-28T09:34:04;1.58;;;0.57;;
50205;SDS011;36098;48.390;10.856;2022-09-28T09:36:57;2.72;;;0.52;;
50205;SDS011;36098;48.390;10.856;2022-09-28T09:39:47;2.38;;;0.50;;
50205;SDS011;36098;48.390;10.856;2022-09-28T09:48:08;2.38;;;0.60;;
50205;SDS011;36098;48.390;10.856;2022-09-28T09:50:41;3.10;;;0.60;;
50205;SDS011;36098;48.390;10.856;2022-09-28T09:55:55;4.55;;;0.60;;
50205;SDS011;36098;48.390;10.856;2022-09-28T09:58:26;1.77;;;0.45;;
50205;SDS011;36098;48.390;10.856;2022-09-28T10:01:00;1.48;;;0.70;;
50205;SDS011;36098;48.390;10.856;2022-09-28T10:03:32;3.80;;;0.38;;
50205;SDS011;36098;48.390;10.856;2022-09-28T10:06:02;2.38;;;0.50;;
50205;SDS011;36098;48.390;10.856;2022-09-28T10:08:33;1.60;;;0.50;;
50205;SDS011;36098;48.390;10.856;2022-09-28T10:11:16;5.75;;;0.70;;
50205;SDS011;36098;48.390;10.856;2022-09-28T10:13:47;4.50;;;0.57;;
50205;SDS011;36098;48.390;10.856;2022-09-28T10:16:13;2.33;;;0.40;;
50205;SDS011;36098;48.390;10.856;2022-09-28T10:18:41;7.00;;;1.48;;
50205;SDS011;36098;48.390;10.856;2022-09-28T10:21:10;3.25;;;0.70;;
50205;SDS011;36098;48.390;10.856;2022-09-28T10:23:37;2.72;;;0.57;;
50205;SDS011;36098;48.390;10.856;2022-09-28T10:26:06;3.50;;;0.93;;
50205;SDS011;36098;48.390;10.856;2022-09-28T10:28:47;6.38;;;0.73;;
50205;SDS011;36098;48.390;10.856;2022-09-28T10:34:02;2.38;;;0.60;;
50205;SDS011;36098;48.390;10.856;2022-09-28T10:36:29;6.03;;;0.63;;
50205;SDS011;36098;48.390;10.856;2022-09-28T10:39:02;2.75;;;0.55;;
50205;SDS011;36098;48.390;10.856;2022-09-28T10:41:29;8.38;;;0.70;;
50205;SDS011;36098;48.390;10.856;2022-09-28T10:43:56;4.18;;;0.70;;
50205;SDS011;36098;48.390;10.856;2022-09-28T10:46:32;3.63;;;0.70;;
50205;SDS011;36098;48.390;10.856;2022-09-28T10:49:00;2.67;;;0.43;;
50205;SDS011;36098;48.390;10.856;2022-09-28T10:51:41;11.18;;;0.70;;
50205;SDS011;36098;48.390;10.856;2022-09-28T10:54:19;2.58;;;0.50;;
50205;SDS011;36098;48.390;10.856;2022-09-28T10:56:46;5.07;;;0.70;;
50205;SDS011;36098;48.390;10.856;2022-09-28T11:01:54;5.57;;;0.50;;
50205;SDS011;36098;48.390;10.856;2022-09-28T11:04:26;3.72;;;0.70;;
50205;SDS011;36098;48.390;10.856;2022-09-28T11:06:53;6.05;;;0.80;;
50205;SDS011;36098;48.390;10.856;2022-09-28T11:09:33;2.75;;;0.52;;
50205;SDS011;36098;48.390;10.856;2022-09-28T11:12:05;2.35;;;0.70;;
50205;SDS011;36098;48.390;10.856;2022-09-28T11:14:38;6.45;;;0.63;;
50205;SDS011;36098;48.390;10.856;2022-09-28T11:19:57;4.65;;;0.65;;
50205;SDS011;36098;48.390;10.856;2022-09-28T11:22:28;3.80;;;0.60;;
50205;SDS011;36098;48.390;10.856;2022-09-28T11:25:19;5.07;;;0.80;;
50205;SDS011;36098;48.390;10.856;2022-09-28T11:33:10;3.47;;;0.65;;
50205;SDS011;36098;48.390;10.856;2022-09-28T11:35:44;6.85;;;1.00;;
50205;SDS011;36098;48.390;10.856;2022-09-28T11:38:21;6.47;;;0.90;;
50205;SDS011;36098;48.390;10.856;2022-09-28T11:41:16;2.78;;;0.60;;
50205;SDS011;36098;48.390;10.856;2022-09-28T11:44:02;6.55;;;0.68;;
50205;SDS011;36098;48.390;10.856;2022-09-28T11:49:34;2.15;;;0.57;;
50205;SDS011;36098;48.390;10.856;2022-09-28T11:52:16;2.35;;;0.65;;
50205;SDS011;36098;48.390;10.856;2022-09-28T11:54:53;4.57;;;1.02;;
50205;SDS011;36098;48.390;10.856;2022-09-28T11:57:34;9.95;;;0.80;;
50205;SDS011;36098;48.390;10.856;2022-09-28T12:00:05;4.85;;;0.90;;
50205;SDS011;36098;48.390;10.856;2022-09-28T12:02:54;3.17;;;0.90;;
50205;SDS011;36098;48.390;10.856;2022-09-28T12:05:37;3.35;;;0.70;;
50205;SDS011;36098;48.390;10.856;2022-09-28T12:13:38;8.88;;;0.90;;
50205;SDS011;36098;48.390;10.856;2022-09-28T12:16:23;5.55;;;1.00;;
50205;SDS011;36098;48.390;10.856;2022-09-28T12:18:57;4.43;;;1.00;;
50205;SDS011;36098;48.390;10.856;2022-09-28T12:21:41;5.53;;;0.80;;
50205;SDS011;36098;48.390;10.856;2022-09-28T12:30:32;9.00;;;0.90;;
50205;SDS011;36098;48.390;10.856;2022-09-28T12:35:18;3.83;;;1.17;;
50205;SDS011;36098;48.390;10.856;2022-09-28T12:40:42;7.45;;;0.80;;
50205;SDS011;36098;48.390;10.856;2022-09-28T13:05:21;5.25;;;0.60;;
50205;SDS011;36098;48.390;10.856;2022-09-28T13:07:57;7.60;;;0.55;;
50205;SDS011;36098;48.390;10.856;2022-09-28T13:11:03;5.22;;;0.60;;
50205;SDS011;36098;48.390;10.856;2022-09-28T13:21:35;3.83;;;0.70;;
50205;SDS011;36098;48.390;10.856;2022-09-28T13:24:08;5.75;;;0.70;;
50205;SDS011;36098;48.390;10.856;2022-09-28T13:26:42;9.18;;;0.75;;
50205;SDS011;36098;48.390;10.856;2022-09-28T13:29:11;6.70;;;0.85;;
50205;SDS011;36098;48.390;10.856;2022-09-28T13:31:43;2.03;;;0.70;;
50205;SDS011;36098;48.390;10.856;2022-09-28T13:34:18;3.17;;;0.70;;
50205;SDS011;36098;48.390;10.856;2022-09-28T13:39:49;4.97;;;1.02;;
50205;SDS011;36098;48.390;10.856;2022-09-28T13:58:16;8.15;;;0.70;;
50205;SDS011;36098;48.390;10.856;2022-09-28T14:01:09;8.68;;;1.02;;
50205;SDS011;36098;48.390;10.856;2022-09-28T14:06:20;4.60;;;0.70;;
50205;SDS011;36098;48.390;10.856;2022-09-28T14:09:06;3.90;;;0.90;;
50205;SDS011;36098;48.390;10.856;2022-09-28T14:16:33;5.15;;;0.90;;
50205;SDS011;36098;48.390;10.856;2022-09-28T14:29:49;8.07;;;1.13;;
50205;SDS011;36098;48.390;10.856;2022-09-28T14:32:31;10.63;;;1.03;;
50205;SDS011;36098;48.390;10.856;2022-09-28T14:35:01;4.70;;;0.90;;
50205;SDS011;36098;48.390;10.856;2022-09-28T14:37:33;5.50;;;1.13;;
50205;SDS011;36098;48.390;10.856;2022-09-28T14:40:20;5.55;;;0.95;;
50205;SDS011;36098;48.390;10.856;2022-09-28T14:53:51;12.98;;;2.25;;
50205;SDS011;36098;48.390;10.856;2022-09-28T14:56:18;8.00;;;1.00;;
50205;SDS011;36098;48.390;10.856;2022-09-28T14:58:44;11.90;;;1.67;;
50205;SDS011;36098;48.390;10.856;2022-09-28T15:01:13;11.00;;;0.90;;
50205;SDS011;36098;48.390;10.856;2022-09-28T15:03:45;6.97;;;0.98;;
50205;SDS011;36098;48.390;10.856;2022-09-28T15:06:15;3.80;;;0.88;;
50205;SDS011;36098;48.390;10.856;2022-09-28T15:08:43;7.90;;;1.17;;
50205;SDS011;36098;48.390;10.856;2022-09-28T15:11:22;13.27;;;1.58;;
50205;SDS011;36098;48.390;10.856;2022-09-28T15:13:49;6.78;;;1.02;;
50205;SDS011;36098;48.390;10.856;2022-09-28T15:16:28;5.90;;;1.30;;
50205;SDS011;36098;48.390;10.856;2022-09-28T15:21:42;6.22;;;0.90;;
50205;SDS011;36098;48.390;10.856;2022-09-28T15:26:59;9.10;;;1.08;;
50205;SDS011;36098;48.390;10.856;2022-09-28T15:29:25;4.45;;;1.15;;
50205;SDS011;36098;48.390;10.856;2022-09-28T15:31:55;4.50;;;1.00;;
50205;SDS011;36098;48.390;10.856;2022-09-28T15:34:30;4.82;;;0.93;;
50205;SDS011;36098;48.390;10.856;2022-09-28T15:37:23;6.50;;;0.90;;
50205;SDS011;36098;48.390;10.856;2022-09-28T15:39:50;2.67;;;1.00;;
50205;SDS011;36098;48.390;10.856;2022-09-28T15:42:17;4.85;;;0.80;;
50205;SDS011;36098;48.390;10.856;2022-09-28T15:44:58;6.10;;;1.10;;
50205;SDS011;36098;48.390;10.856;2022-09-28T15:47:26;10.38;;;1.48;;
50205;SDS011;36098;48.390;10.856;2022-09-28T15:52:51;7.38;;;1.05;;
50205;SDS011;36098;48.390;10.856;2022-09-28T15:55:20;5.70;;;0.90;;
50205;SDS011;36098;48.390;10.856;2022-09-28T15:57:48;12.50;;;1.10;;
50205;SDS011;36098;48.390;10.856;2022-09-28T16:02:59;4.95;;;1.00;;
50205;SDS011;36098;48.390;10.856;2022-09-28T16:05:38;4.38;;;0.85;;
50205;SDS011;36098;48.390;10.856;2022-09-28T16:08:10;8.55;;;0.70;;
50205;SDS011;36098;48.390;10.856;2022-09-28T16:10:52;5.55;;;1.10;;
50205;SDS011;36098;48.390;10.856;2022-09-28T16:13:27;3.35;;;1.08;;
50205;SDS011;36098;48.390;10.856;2022-09-28T16:15:53;6.57;;;0.90;;
50205;SDS011;36098;48.390;10.856;2022-09-28T16:18:22;6.43;;;1.25;;
50205;SDS011;36098;48.390;10.856;2022-09-28T16:20:50;10.85;;;1.35;;
50205;SDS011;36098;48.390;10.856;2022-09-28T16:23:24;7.10;;;0.88;;
50205;SDS011;36098;48.390;10.856;2022-09-28T16:25:54;7.35;;;0.98;;
50205;SDS011;36098;48.390;10.856;2022-09-28T16:28:24;7.32;;;1.00;;
50205;SDS011;36098;48.390;10.856;2022-09-28T16:31:02;6.65;;;0.70;;
50205;SDS011;36098;48.390;10.856;2022-09-28T16:33:37;7.47;;;1.00;;
50205;SDS011;36098;48.390;10.856;2022-09-28T16:36:07;3.25;;;0.90;;
50205;SDS011;36098;48.390;10.856;2022-09-28T16:38:36;5.40;;;0.82;;
50205;SDS011;36098;48.390;10.856;2022-09-28T16:41:02;4.10;;;0.85;;
50205;SDS011;36098;48.390;10.856;2022-09-28T16:43:30;8.05;;;0.98;;
50205;SDS011;36098;48.390;10.856;2022-09-28T16:45:59;10.80;;;0.95;;
50205;SDS011;36098;48.390;10.856;2022-09-28T16:48:30;4.28;;;0.80;;
50205;SDS011;36098;48.390;10.856;2022-09-28T16:50:58;7.60;;;1.17;;
50205;SDS011;36098;48.390;10.856;2022-09-28T16:53:23;10.95;;;1.00;;
50205;SDS011;36098;48.390;10.856;2022-09-28T16:56:08;12.35;;;1.13;;
50205;SDS011;36098;48.390;10.856;2022-09-28T16:58:34;5.38;;;0.93;;
50205;SDS011;36098;48.390;10.856;2022-09-28T17:01:01;6.80;;;1.30;;
50205;SDS011;36098;48.390;10.856;2022-09-28T17:03:29;9.27;;;2.10;;
50205;SDS011;36098;48.390;10.856;2022-09-28T17:05:54;12.90;;;2.42;;
50205;SDS011;36098;48.390;10.856;2022-09-28T17:08:21;14.90;;;2.28;;
50205;SDS011;36098;48.390;10.856;2022-09-28T17:13:18;18.00;;;1.73;;
50205;SDS011;36098;48.390;10.856;2022-09-28T17:15:45;10.52;;;1.48;;
50205;SDS011;36098;48.390;10.856;2022-09-28T17:18:14;8.65;;;1.55;;
50205;SDS011;36098;48.390;10.856;2022-09-28T17:20:41;10.40;;;1.60;;
50205;SDS011;36098;48.390;10.856;2022-09-28T17:23:08;5.43;;;1.20;;
50205;SDS011;36098;48.390;10.856;2022-09-28T17:25:34;6.15;;;1.80;;
50205;SDS011;36098;48.390;10.856;2022-09-28T17:28:00;4.57;;;1.35;;
50205;SDS011;36098;48.390;10.856;2022-09-28T17:30:26;6.80;;;1.70;;
50205;SDS011;36098;48.390;10.856;2022-09-28T17:32:51;6.38;;;1.33;;
50205;SDS011;36098;48.390;10.856;2022-09-28T17:35:17;4.75;;;1.52;;
50205;SDS011;36098;48.390;10.856;2022-09-28T17:37:43;5.20;;;1.75;;
50205;SDS011;36098;48.390;10.856;2022-09-28T17:40:24;4.72;;;1.20;;
50205;SDS011;36098;48.390;10.856;2022-09-28T17:42:52;8.27;;;1.90;;
50205;SDS011;36098;48.390;10.856;2022-09-28T17:45:20;8.00;;;1.42;;
50205;SDS011;36098;48.390;10.856;2022-09-28T17:47:46;7.20;;;1.63;;
50205;SDS011;36098;48.390;10.856;2022-09-28T17:50:16;6.13;;;1.40;;
50205;SDS011;36098;48.390;10.856;2022-09-28T17:52:47;23.88;;;1.90;;
50205;SDS011;36098;48.390;10.856;2022-09-28T17:55:16;9.13;;;1.30;;
50205;SDS011;36098;48.390;10.856;2022-09-28T17:57:42;5.47;;;1.55;;
50205;SDS011;36098;48.390;10.856;2022-09-28T18:00:07;11.27;;;1.70;;
50205;SDS011;36098;48.390;10.856;2022-09-28T18:02:35;12.35;;;1.73;;
50205;SDS011;36098;48.390;10.856;2022-09-28T18:05:00;9.27;;;1.33;;
50205;SDS011;36098;48.390;10.856;2022-09-28T18:07:26;8.48;;;1.30;;